createdAt,value
2018-04-01T00:00:51.069Z,24.03
2018-04-01T00:03:17.154Z,17.47
2018-04-01T00:05:43.956Z,16.47
2018-04-01T00:08:10.036Z,18.10
2018-04-01T00:10:37.385Z,13.43
2018-04-01T00:13:04.213Z,20.20
2018-04-01T00:15:30.276Z,21.73
2018-04-01T00:17:56.360Z,18.70
2018-04-01T00:20:22.416Z,23.57
2018-04-01T00:22:49.240Z,21.07
2018-04-01T00:25:16.036Z,21.27
2018-04-01T00:27:42.139Z,21.23
2018-04-01T00:30:08.192Z,21.57
2018-04-01T00:32:34.304Z,22.13
2018-04-01T00:35:00.368Z,22.53
2018-04-01T00:37:26.423Z,23.07
2018-04-01T00:39:53.240Z,19.90
2018-04-01T00:42:19.300Z,22.83
2018-04-01T00:44:45.384Z,22.67
2018-04-01T00:47:11.440Z,25.10
2018-04-01T00:49:38.260Z,19.63
2018-04-01T00:52:04.317Z,21.97
2018-04-01T00:54:31.140Z,18.77
2018-04-01T00:56:57.197Z,20.53
2018-04-01T00:59:23.272Z,20.67
2018-04-01T01:01:49.333Z,22.80
2018-04-01T01:04:16.164Z,16.57
2018-04-01T01:06:42.989Z,19.70
2018-04-01T01:09:09.119Z,18.03
2018-04-01T01:11:35.179Z,20.07
2018-04-01T01:14:01.268Z,21.80
2018-04-01T01:16:27.688Z,19.47
2018-04-01T01:18:55.041Z,16.40
2018-04-01T01:21:22.295Z,18.30
2018-04-01T01:23:48.376Z,19.83
2018-04-01T01:26:14.501Z,17.17
2018-04-01T01:28:40.580Z,15.60
2018-04-01T01:31:06.641Z,17.77
2018-04-01T01:33:33.455Z,17.60
2018-04-01T01:35:59.518Z,17.37
2018-04-01T01:38:25.872Z,14.23
2018-04-01T01:40:51.931Z,14.43
2018-04-01T01:43:18.031Z,16.57
2018-04-01T01:45:44.089Z,23.20
2018-04-01T01:48:10.920Z,29.50
2018-04-01T01:50:37.020Z,30.73
2018-04-01T01:53:03.081Z,30.93
2018-04-01T01:55:29.197Z,27.67
2018-04-01T01:57:55.281Z,28.47
2018-04-01T02:00:21.405Z,27.67
2018-04-01T02:02:47.460Z,27.83
2018-04-01T02:05:13.560Z,28.23
2018-04-01T02:07:39.664Z,29.07
2018-04-01T02:10:06.466Z,27.00
2018-04-01T02:12:32.548Z,27.37
2018-04-01T02:14:58.625Z,27.90
2018-04-01T02:17:24.728Z,29.30
2018-04-01T02:19:50.788Z,26.93
2018-04-01T02:22:16.905Z,27.97
2018-04-01T02:24:42.985Z,25.90
2018-04-01T02:27:09.092Z,28.23
2018-04-01T02:29:35.906Z,28.03
2018-04-01T02:32:02.004Z,25.73
2018-04-01T02:34:28.078Z,27.30
2018-04-01T02:36:54.901Z,23.80
2018-04-01T02:39:20.960Z,24.67
2018-04-01T02:41:47.053Z,27.80
2018-04-01T02:44:13.114Z,23.83
2018-04-01T02:46:39.198Z,23.40
2018-04-01T02:49:06.733Z,26.30
2018-04-01T02:51:32.833Z,17.17
2018-04-01T02:53:59.181Z,19.93
2018-04-01T02:56:25.248Z,24.00
2018-04-01T02:58:51.328Z,25.80
2018-04-01T03:01:17.384Z,22.93
2018-04-01T03:03:43.460Z,17.53
2018-04-01T03:06:09.521Z,26.43
2018-04-01T03:08:35.613Z,24.63
2018-04-01T03:11:02.147Z,21.30
2018-04-01T03:13:28.247Z,24.20
2018-04-01T03:15:54.308Z,18.13
2018-04-01T03:18:20.812Z,22.27
2018-04-01T03:20:47.646Z,22.80
2018-04-01T03:23:13.705Z,22.07
2018-04-01T03:25:39.794Z,19.13
2018-04-01T03:28:05.880Z,20.47
2018-04-01T03:30:31.961Z,21.33
2018-04-01T03:32:58.760Z,21.77
2018-04-01T03:35:24.845Z,19.13
2018-04-01T03:37:50.909Z,19.60
2018-04-01T03:40:16.987Z,20.47
2018-04-01T03:42:43.786Z,21.30
2018-04-01T03:45:10.033Z,14.10
2018-04-01T03:47:36.094Z,21.20
2018-04-01T03:50:02.885Z,20.13
2018-04-01T03:52:28.974Z,18.83
2018-04-01T03:54:55.027Z,18.97
2018-04-01T03:57:21.103Z,12.93
2018-04-01T03:59:47.906Z,14.47
2018-04-01T04:02:14.009Z,12.90
2018-04-01T04:04:40.076Z,16.03
2018-04-01T04:07:06.182Z,17.47
2018-04-01T04:09:32.240Z,14.77
2018-04-01T04:11:59.059Z,17.30
2018-04-01T04:14:25.112Z,19.70
2018-04-01T04:16:52.464Z,18.17
2018-04-01T04:19:19.256Z,16.93
2018-04-01T04:21:45.492Z,18.23
2018-04-01T04:24:11.544Z,16.80
2018-04-01T04:26:37.632Z,18.43
2018-04-01T04:29:03.715Z,15.83
2018-04-01T04:31:30.517Z,17.57
2018-04-01T04:33:56.595Z,17.60
2018-04-01T04:36:23.389Z,18.20
2018-04-01T04:38:49.468Z,17.80
2018-04-01T04:41:15.553Z,16.00
2018-04-01T04:43:41.640Z,17.83
2018-04-01T04:46:07.699Z,13.70
2018-04-01T04:48:33.781Z,17.07
2018-04-01T04:50:59.846Z,15.47
2018-04-01T04:53:26.676Z,15.43
2018-04-01T04:55:52.757Z,18.20
2018-04-01T04:58:18.832Z,15.60
2018-04-01T05:00:44.912Z,15.87
2018-04-01T05:03:11.708Z,17.70
2018-04-01T05:05:37.788Z,14.93
2018-04-01T05:08:03.844Z,16.07
2018-04-01T05:10:29.935Z,11.80
2018-04-01T05:12:55.999Z,14.23
2018-04-01T05:15:22.088Z,16.70
2018-04-01T05:17:48.154Z,14.57
2018-04-01T05:20:14.260Z,12.47
2018-04-01T05:22:40.335Z,9.30
2018-04-01T05:25:06.542Z,15.03
2018-04-01T05:27:32.620Z,13.33
2018-04-01T05:29:58.690Z,12.40
2018-04-01T05:32:24.764Z,11.10
2018-04-01T05:34:51.565Z,7.77
2018-04-01T05:37:18.380Z,10.40
2018-04-01T05:39:44.428Z,9.47
2018-04-01T05:42:10.517Z,13.80
2018-04-01T05:44:36.576Z,11.90
2018-04-01T05:47:02.660Z,8.90
2018-04-01T05:49:28.731Z,15.70
2018-04-01T05:51:54.805Z,12.60
2018-04-01T05:54:20.864Z,14.27
2018-04-01T05:56:46.952Z,15.07
2018-04-01T05:59:13.012Z,15.90
2018-04-01T06:01:39.440Z,12.67
2018-04-01T06:04:05.492Z,15.23
2018-04-01T06:06:31.580Z,16.30
2018-04-01T06:08:57.639Z,11.47
2018-04-01T06:11:23.740Z,10.20
2018-04-01T06:13:49.800Z,10.23
2018-04-01T06:16:15.901Z,9.10
2018-04-01T06:18:41.971Z,16.97
2018-04-01T06:21:08.033Z,11.70
2018-04-01T06:23:34.112Z,11.97
2018-04-01T06:26:01.676Z,16.13
2018-04-01T06:28:28.496Z,17.30
2018-04-01T06:30:54.548Z,10.77
2018-04-01T06:33:20.627Z,9.43
2018-04-01T06:35:46.684Z,16.80
2018-04-01T06:38:12.764Z,10.40
2018-04-01T06:40:38.813Z,13.50
2018-04-01T06:43:04.903Z,11.63
2018-04-01T06:45:30.962Z,9.60
2018-04-01T06:47:57.409Z,18.13
2018-04-01T06:50:23.484Z,17.53
2018-04-01T06:52:50.280Z,16.13
2018-04-01T06:55:16.377Z,17.23
2018-04-01T06:57:42.433Z,14.73
2018-04-01T07:00:08.525Z,18.90
2018-04-01T07:02:34.592Z,19.23
2018-04-01T07:05:00.680Z,18.20
2018-04-01T07:07:26.740Z,18.50
2018-04-01T07:09:52.816Z,17.37
2018-04-01T07:12:18.881Z,14.70
2018-04-01T07:14:44.972Z,16.20
2018-04-01T07:17:11.033Z,16.20
2018-04-01T07:19:37.104Z,9.93
2018-04-01T07:22:03.934Z,18.53
2018-04-01T07:24:30.737Z,16.50
2018-04-01T07:26:56.860Z,19.03
2018-04-01T07:29:22.921Z,21.30
2018-04-01T07:31:49.006Z,18.13
2018-04-01T07:34:15.061Z,13.40
2018-04-01T07:36:41.145Z,17.43
2018-04-01T07:39:07.208Z,16.83
2018-04-01T07:41:34.044Z,15.37
2018-04-01T07:44:00.113Z,20.20
2018-04-01T07:46:27.344Z,16.60
2018-04-01T07:48:54.168Z,15.00
2018-04-01T07:51:20.224Z,12.23
2018-04-01T07:53:47.048Z,14.97
2018-04-01T07:56:13.440Z,14.37
2018-04-01T07:58:39.524Z,14.83
2018-04-01T08:01:06.335Z,16.37
2018-04-01T08:03:32.420Z,15.20
2018-04-01T08:05:58.478Z,16.90
2018-04-01T08:08:24.556Z,10.53
2018-04-01T08:10:51.353Z,13.50
2018-04-01T08:13:17.429Z,13.70
2018-04-01T08:15:43.483Z,13.10
2018-04-01T08:18:09.583Z,18.90
2018-04-01T08:20:35.652Z,19.73
2018-04-01T08:23:01.748Z,17.40
2018-04-01T08:25:28.087Z,17.43
2018-04-01T08:27:54.204Z,15.13
2018-04-01T08:30:20.302Z,19.10
2018-04-01T08:32:47.109Z,18.70
2018-04-01T08:35:13.990Z,16.47
2018-04-01T08:37:40.800Z,15.43
2018-04-01T08:40:06.929Z,15.93
2018-04-01T08:42:32.984Z,15.87
2018-04-01T08:44:59.808Z,16.97
2018-04-01T08:47:26.648Z,9.87
2018-04-01T08:49:52.729Z,12.50
2018-04-01T08:52:18.785Z,12.00
2018-04-01T08:54:44.868Z,14.40
2018-04-01T08:57:10.924Z,15.30
2018-04-01T08:59:37.004Z,19.27
2018-04-01T09:02:03.813Z,14.93
2018-04-01T09:04:29.897Z,14.83
2018-04-01T09:06:55.947Z,13.10
2018-04-01T09:09:22.066Z,16.10
2018-04-01T09:11:48.135Z,14.90
2018-04-01T09:14:14.969Z,15.70
2018-04-01T09:16:41.063Z,14.13
2018-04-01T09:19:07.129Z,17.20
2018-04-01T09:21:33.212Z,16.43
2018-04-01T09:23:59.289Z,12.90
2018-04-01T09:26:26.132Z,15.93
2018-04-01T09:28:52.932Z,16.00
2018-04-01T09:31:19.008Z,16.23
2018-04-01T09:33:45.088Z,18.10
2018-04-01T09:36:11.319Z,22.73
2018-04-01T09:38:37.375Z,18.33
2018-04-01T09:41:04.196Z,12.10
2018-04-01T09:43:30.276Z,18.53
2018-04-01T09:45:56.334Z,9.67
2018-04-01T09:48:22.412Z,13.13
2018-04-01T09:50:49.208Z,12.40
2018-04-01T09:53:15.283Z,13.47
2018-04-01T09:55:41.336Z,22.33
2018-04-01T09:58:07.416Z,11.57
2018-04-01T10:00:40.572Z,13.17
2018-04-01T10:03:06.788Z,10.67
2018-04-01T10:05:33.006Z,9.70
2018-04-01T10:07:59.235Z,18.70
2018-04-01T10:10:25.436Z,9.20
2018-04-01T10:12:52.415Z,7.60
2018-04-01T10:15:18.618Z,11.90
2018-04-01T10:17:44.913Z,12.70
2018-04-01T10:20:11.221Z,7.83
2018-04-01T10:22:38.104Z,7.90
2018-04-01T10:25:05.089Z,9.63
2018-04-01T10:27:31.282Z,8.43
2018-04-01T10:29:58.232Z,11.13
2018-04-01T10:32:25.164Z,9.73
2018-04-01T10:34:51.385Z,9.90
2018-04-01T10:37:20.712Z,11.17
2018-04-01T10:39:48.644Z,11.20
2018-04-01T10:42:14.828Z,9.53
2018-04-01T10:44:41.045Z,10.00
2018-04-01T10:47:07.240Z,10.00
2018-04-01T10:49:34.270Z,8.90
2018-04-01T10:52:00.529Z,9.70
2018-04-01T10:54:27.355Z,9.60
2018-04-01T10:56:54.162Z,9.60
2018-04-01T10:59:20.268Z,6.90
2018-04-01T11:01:46.324Z,9.60
2018-04-01T11:04:12.384Z,10.00
2018-04-01T11:06:39.206Z,9.10
2018-04-01T11:09:05.265Z,12.87
2018-04-01T11:11:32.136Z,9.93
2018-04-01T11:13:58.204Z,9.30
2018-04-01T11:16:24.368Z,9.60
2018-04-01T11:18:51.168Z,9.97
2018-04-01T11:21:17.224Z,10.50
2018-04-01T11:23:44.049Z,10.43
2018-04-01T11:26:10.139Z,8.90
2018-04-01T11:28:36.220Z,8.43
2018-04-01T11:31:03.020Z,9.30
2018-04-01T11:33:29.101Z,9.40
2018-04-01T11:35:55.898Z,9.50
2018-04-01T11:38:21.985Z,9.00
2018-04-01T11:40:48.071Z,10.30
2018-04-01T11:43:14.160Z,10.00
2018-04-01T11:45:40.216Z,11.10
2018-04-01T11:48:06.268Z,11.17
2018-04-01T11:50:33.088Z,10.10
2018-04-01T11:52:59.151Z,20.27
2018-04-01T11:55:25.244Z,18.60
2018-04-01T11:57:51.305Z,10.37
2018-04-01T12:00:17.380Z,12.23
2018-04-01T12:02:43.440Z,11.30
2018-04-01T12:05:10.263Z,11.47
2018-04-01T12:07:36.320Z,11.87
2018-04-01T12:10:02.447Z,11.93
2018-04-01T12:12:29.217Z,11.70
2018-04-01T12:14:55.304Z,13.73
2018-04-01T12:17:22.120Z,11.90
2018-04-01T12:19:49.680Z,17.07
2018-04-01T12:22:16.481Z,14.17
2018-04-01T12:24:42.552Z,17.93
2018-04-01T12:27:08.632Z,18.63
2018-04-01T12:29:34.728Z,18.40
2018-04-01T12:32:02.536Z,15.27
2018-04-01T12:34:29.509Z,24.80
2018-04-01T12:36:56.345Z,11.47
2018-04-01T12:39:22.440Z,10.33
2018-04-01T12:41:48.504Z,8.63
2018-04-01T12:44:14.599Z,8.37
2018-04-01T12:46:40.656Z,7.93
2018-04-01T12:49:06.707Z,9.30
2018-04-01T12:51:33.529Z,9.47
2018-04-01T12:53:59.588Z,8.40
2018-04-01T12:56:25.674Z,8.10
2018-04-01T12:58:51.723Z,7.80
2018-04-01T13:01:18.553Z,8.17
2018-04-01T13:03:44.633Z,6.97
2018-04-01T13:06:10.734Z,6.90
2018-04-01T13:08:36.791Z,5.57
2018-04-01T13:11:02.867Z,5.50
2018-04-01T13:13:29.663Z,5.90
2018-04-01T13:15:55.772Z,6.67
2018-04-01T13:18:21.829Z,6.57
2018-04-01T13:20:47.913Z,7.10
2018-04-01T13:23:13.974Z,7.70
2018-04-01T13:25:40.024Z,6.23
2018-04-01T13:28:06.100Z,6.77
2018-04-01T13:30:32.168Z,5.80
2018-04-01T13:32:58.255Z,7.43
2018-04-01T13:35:24.309Z,7.70
2018-04-01T13:37:50.405Z,7.60
2018-04-01T13:40:16.561Z,8.10
2018-04-01T13:42:43.772Z,7.70
2018-04-01T13:45:10.768Z,7.30
2018-04-01T13:47:36.820Z,8.43
2018-04-01T13:50:03.690Z,7.13
2018-04-01T13:52:29.755Z,7.50
2018-04-01T13:54:55.856Z,7.53
2018-04-01T13:57:21.947Z,7.60
2018-04-01T13:59:48.052Z,7.43
2018-04-01T14:02:14.109Z,8.50
2018-04-01T14:04:40.215Z,8.00
2018-04-01T14:07:06.284Z,8.07
2018-04-01T14:09:32.372Z,8.40
2018-04-01T14:11:59.180Z,7.03
2018-04-01T14:14:25.266Z,8.40
2018-04-01T14:16:51.354Z,7.97
2018-04-01T14:19:17.440Z,7.83
2018-04-01T14:21:43.509Z,8.80
2018-04-01T14:24:10.344Z,8.53
2018-04-01T14:26:37.164Z,8.17
2018-04-01T14:29:03.244Z,8.57
2018-04-01T14:31:29.303Z,8.63
2018-04-01T14:33:55.447Z,8.17
2018-04-01T14:36:21.504Z,7.50
2018-04-01T14:38:48.332Z,7.60
2018-04-01T14:41:15.872Z,7.67
2018-04-01T14:43:41.973Z,7.00
2018-04-01T14:46:08.060Z,5.17
2018-04-01T14:48:34.860Z,5.20
2018-04-01T14:51:01.721Z,5.00
2018-04-01T14:53:27.782Z,5.50
2018-04-01T14:55:54.609Z,5.00
2018-04-01T14:58:21.403Z,5.70
2018-04-01T15:00:47.499Z,5.33
2018-04-01T15:03:13.547Z,6.87
2018-04-01T15:05:39.671Z,5.97
2018-04-01T15:08:05.733Z,19.40
2018-04-01T15:10:31.812Z,6.53
2018-04-01T15:12:57.888Z,6.90
2018-04-01T15:15:23.976Z,8.40
2018-04-01T15:17:50.040Z,7.63
2018-04-01T15:20:16.873Z,8.97
2018-04-01T15:22:44.648Z,6.60
2018-04-01T15:25:10.734Z,9.17
2018-04-01T15:27:36.819Z,8.30
2018-04-01T15:30:03.660Z,8.77
2018-04-01T15:32:30.460Z,9.87
2018-04-01T15:34:56.547Z,8.10
2018-04-01T15:37:23.372Z,10.40
2018-04-01T15:39:50.204Z,8.00
2018-04-01T15:42:16.261Z,8.63
2018-04-01T15:44:42.344Z,7.67
2018-04-01T15:47:08.412Z,8.50
2018-04-01T15:49:34.493Z,8.70
2018-04-01T15:52:01.411Z,7.40
2018-04-01T15:54:28.301Z,7.50
2018-04-01T15:56:54.361Z,7.40
2018-04-01T15:59:20.440Z,7.40
2018-04-01T16:01:46.520Z,7.93
2018-04-01T16:04:12.712Z,9.23
2018-04-01T16:06:39.516Z,7.53
2018-04-01T16:09:05.572Z,9.33
2018-04-01T16:11:31.944Z,8.73
2018-04-01T16:13:58.028Z,8.23
2018-04-01T16:16:24.089Z,9.83
2018-04-01T16:18:50.196Z,11.50
2018-04-01T16:21:16.996Z,9.37
2018-04-01T16:23:43.056Z,8.37
2018-04-01T16:26:09.227Z,8.63
2018-04-01T16:28:35.300Z,7.40
2018-04-01T16:31:01.381Z,7.20
2018-04-01T16:33:27.448Z,7.37
2018-04-01T16:35:53.532Z,9.70
2018-04-01T16:38:19.625Z,9.77
2018-04-01T16:40:46.457Z,10.35
2018-04-01T16:43:13.265Z,10.15
2018-04-01T16:45:39.353Z,10.07
2018-04-01T16:48:05.415Z,8.17
2018-04-01T16:50:31.495Z,8.90
2018-04-01T16:52:57.552Z,9.90
2018-04-01T16:55:23.633Z,9.77
2018-04-01T16:57:50.437Z,10.10
2018-04-01T17:00:16.490Z,8.53
2018-04-01T17:02:42.571Z,7.10
2018-04-01T17:05:09.423Z,7.90
2018-04-01T17:07:35.500Z,9.10
2018-04-01T17:10:02.301Z,6.87
2018-04-01T17:12:28.380Z,9.20
2018-04-01T17:14:54.432Z,9.80
2018-04-01T17:17:20.517Z,6.60
2018-04-01T17:19:47.308Z,18.10
2018-04-01T17:22:13.400Z,11.60
2018-04-01T17:24:39.448Z,9.33
2018-04-01T17:27:05.537Z,9.90
2018-04-01T17:29:32.368Z,9.15
2018-04-01T17:31:59.189Z,13.37
2018-04-01T17:34:25.277Z,13.90
2018-04-01T17:36:51.338Z,15.73
2018-04-01T17:39:17.413Z,13.27
2018-04-01T17:41:43.477Z,13.97
2018-04-01T17:44:09.576Z,15.43
2018-04-01T17:46:35.683Z,14.30
2018-04-01T17:49:02.507Z,15.70
2018-04-01T17:51:28.567Z,14.53
2018-04-01T17:53:54.648Z,14.60
2018-04-01T17:56:20.700Z,15.20
2018-04-01T17:58:47.520Z,13.60
2018-04-01T18:01:13.585Z,15.77
2018-04-01T18:03:39.721Z,14.50
2018-04-01T18:06:06.556Z,13.80
2018-04-01T18:08:32.623Z,14.33
2018-04-01T18:10:58.695Z,18.10
2018-04-01T18:13:25.496Z,13.80
2018-04-01T18:15:51.600Z,14.90
2018-04-01T18:18:17.665Z,13.10
2018-04-01T18:20:43.751Z,12.50
2018-04-01T18:23:09.894Z,14.93
2018-04-01T18:25:35.996Z,12.10
2018-04-01T18:28:02.051Z,9.60
2018-04-01T18:30:28.150Z,9.43
2018-04-01T18:32:54.196Z,8.47
2018-04-01T18:35:20.340Z,9.50
2018-04-01T18:37:47.681Z,9.10
2018-04-01T18:40:14.552Z,9.63
2018-04-01T18:42:41.356Z,9.77
2018-04-01T18:45:07.433Z,8.90
2018-04-01T18:47:34.253Z,11.10
2018-04-01T18:50:00.310Z,8.87
2018-04-01T18:52:26.409Z,9.57
2018-04-01T18:54:52.477Z,12.00
2018-04-01T18:57:18.576Z,11.20
2018-04-01T18:59:45.378Z,10.20
2018-04-01T19:02:11.616Z,11.43
2018-04-01T19:04:38.428Z,10.37
2018-04-01T19:07:04.505Z,10.23
2018-04-01T19:09:30.656Z,10.27
2018-04-01T19:11:56.766Z,9.63
2018-04-01T19:14:23.573Z,11.10
2018-04-01T19:19:49.956Z,11.90
2018-04-01T19:22:16.937Z,11.30
2018-04-01T19:24:43.150Z,10.43
2018-04-01T19:27:10.127Z,10.40
2018-04-01T19:29:36.322Z,10.30
2018-04-01T19:32:03.535Z,10.07
2018-04-01T19:34:29.748Z,8.10
2018-04-01T19:36:56.680Z,9.53
2018-04-01T19:39:22.900Z,10.80
2018-04-01T19:41:49.115Z,8.63
2018-04-01T19:44:15.340Z,9.07
2018-04-01T19:46:41.533Z,12.60
2018-04-01T19:49:08.029Z,9.37
2018-04-01T19:51:34.243Z,11.10
2018-04-01T19:54:00.568Z,9.70
2018-04-01T19:56:26.756Z,11.73
2018-04-01T19:58:52.984Z,10.30
2018-04-01T20:01:19.177Z,10.20
2018-04-01T20:03:45.452Z,11.33
2018-04-01T20:06:11.664Z,8.10
2018-04-01T20:08:37.879Z,9.90
2018-04-01T20:11:04.132Z,9.20
2018-04-01T20:13:31.089Z,8.60
2018-04-01T20:15:57.348Z,13.07
2018-04-01T20:18:23.613Z,9.00
2018-04-01T20:20:49.860Z,8.17
2018-04-01T20:23:16.085Z,7.03
2018-04-01T20:25:42.328Z,10.40
2018-04-01T20:28:09.257Z,10.73
2018-04-01T20:30:35.472Z,10.17
2018-04-01T20:33:01.660Z,8.33
2018-04-01T20:35:28.665Z,10.10
2018-04-01T20:37:54.872Z,8.37
2018-04-01T20:40:21.460Z,7.97
2018-04-01T20:42:48.396Z,8.47
2018-04-01T20:45:14.645Z,10.30
2018-04-01T20:47:41.577Z,11.83
2018-04-01T20:50:08.580Z,12.27
2018-04-01T20:52:34.769Z,8.77
2018-04-01T20:55:01.773Z,10.07
2018-04-01T20:57:27.964Z,12.00
2018-04-01T20:59:54.168Z,9.10
2018-04-01T21:02:21.128Z,12.80
2018-04-01T21:04:47.342Z,9.40
2018-04-01T21:07:14.302Z,9.60
2018-04-01T21:09:40.517Z,11.60
2018-04-01T21:12:07.497Z,13.00
2018-04-01T21:14:33.729Z,11.97
2018-04-01T21:16:59.945Z,13.60
2018-04-01T21:19:26.136Z,12.93
2018-04-01T21:21:52.324Z,13.33
2018-04-01T21:24:18.532Z,14.00
2018-04-01T21:26:44.745Z,11.67
2018-04-01T21:29:11.705Z,15.10
2018-04-01T21:31:37.888Z,13.67
2018-04-01T21:34:04.105Z,15.73
2018-04-01T21:36:30.297Z,15.27
2018-04-01T21:38:56.528Z,15.83
2018-04-01T21:41:22.724Z,13.60
2018-04-01T21:43:49.688Z,14.77
2018-04-01T21:46:15.888Z,14.90
2018-04-01T21:48:42.847Z,9.30
2018-04-01T21:51:09.776Z,14.77
2018-04-01T21:53:35.996Z,13.77
2018-04-01T21:56:02.199Z,14.37
2018-04-01T21:58:28.413Z,14.67
2018-04-01T22:00:54.609Z,14.90
2018-04-01T22:03:21.572Z,15.27
2018-04-01T22:05:47.756Z,11.80
2018-04-01T22:08:13.968Z,15.50
2018-04-01T22:10:40.166Z,12.20
2018-04-01T22:13:06.388Z,13.10
2018-04-01T22:15:32.575Z,14.97
2018-04-01T22:17:58.763Z,13.10
2018-04-01T22:20:24.988Z,13.47
2018-04-01T22:23:03.738Z,15.97
2018-04-01T22:25:29.972Z,14.80
2018-04-01T22:27:56.188Z,12.77
2018-04-01T22:30:22.408Z,15.73
2018-04-01T22:32:48.624Z,13.50
2018-04-01T22:35:14.837Z,12.60
2018-04-01T22:37:41.060Z,11.73
2018-04-01T22:40:08.024Z,12.73
2018-04-01T22:42:34.226Z,15.90
2018-04-01T22:45:01.238Z,17.47
2018-04-01T22:47:27.428Z,14.30
2018-04-01T22:49:53.668Z,16.47
2018-04-01T22:52:19.864Z,12.83
2018-04-01T22:54:46.829Z,12.97
2018-04-01T22:57:13.039Z,14.50
2018-04-01T22:59:39.993Z,13.27
2018-04-01T23:02:06.249Z,16.63
2018-04-01T23:04:32.460Z,16.40
2018-04-01T23:06:58.648Z,17.27
2018-04-01T23:09:25.064Z,20.90
2018-04-01T23:11:51.261Z,21.63
2018-04-01T23:14:17.452Z,21.50
2018-04-01T23:16:44.416Z,21.60
2018-04-01T23:19:10.652Z,18.27
2018-04-01T23:21:36.841Z,21.77
2018-04-01T23:24:03.048Z,18.50
2018-04-01T23:26:29.293Z,19.23
2018-04-01T23:28:55.492Z,18.83
2018-04-01T23:31:21.700Z,14.07
2018-04-01T23:33:47.888Z,20.07
2018-04-01T23:36:14.296Z,18.93
2018-04-01T23:38:40.544Z,16.80
2018-04-01T23:41:06.743Z,16.60
2018-04-01T23:43:32.960Z,23.27
2018-04-01T23:45:59.148Z,20.07
2018-04-01T23:48:26.105Z,20.20
2018-04-01T23:50:53.042Z,22.17
2018-04-01T23:53:20.068Z,15.07
2018-04-01T23:55:46.260Z,15.80
2018-04-01T23:58:12.476Z,16.10
